Time;durP1;ratioP1;P1;durP2;ratioP2;P2;SDS_P1;SDS_P2;PMS_P1;PMS_P2;Temp;Humidity;BMP_temperature;BMP_pressure;BME280_temperature;BME280_humidity;BME280_pressure;Samples;Min_cycle;Max_cycle;Signal;HPM_P1;HPM_P2
2022/08/21 17:23:06;;;;;;;4.82;1.67;;;;;;;;;;7424653;19;20367;-71
2022/08/21 17:25:31;;;;;;;4.80;1.80;;;;;;;;;;7425703;19;20010;-71
2022/08/21 17:27:58;;;;;;;3.38;1.85;;;;;;;;;;7426169;19;20007;-72
2022/08/21 17:30:24;;;;;;;4.43;1.90;;;;;;;;;;7414392;19;20491;-72
2022/08/21 17:32:52;;;;;;;2.47;1.63;;;;;;;;;;7349735;19;20014;-70
2022/08/21 17:35:18;;;;;;;5.28;1.88;;;;;;;;;;7413763;19;20449;-68
2022/08/21 17:37:43;;;;;;;3.35;1.58;;;;;;;;;;7419238;19;20018;-69
2022/08/21 17:40:13;;;;;;;3.15;1.85;;;;;;;;;;7415387;19;20487;-69
2022/08/21 17:42:40;;;;;;;3.15;1.33;;;;;;;;;;7419349;19;19999;-71
2022/08/21 17:45:10;;;;;;;11.70;5.95;;;;;;;;;;7415693;19;20102;-70
2022/08/21 17:47:36;;;;;;;13.18;8.40;;;;;;;;;;7422447;19;20370;-71
2022/08/21 17:50:02;;;;;;;4.63;1.95;;;;;;;;;;7421717;19;20482;-69
2022/08/21 17:52:28;;;;;;;2.58;1.25;;;;;;;;;;7419461;19;20481;-68
2022/08/21 17:54:53;;;;;;;1.35;1.20;;;;;;;;;;7420062;19;20006;-69
2022/08/21 17:57:21;;;;;;;2.00;1.27;;;;;;;;;;7418765;19;20003;-70
2022/08/21 17:59:47;;;;;;;2.97;1.40;;;;;;;;;;7422246;19;20092;-70
2022/08/21 18:02:13;;;;;;;3.90;2.03;;;;;;;;;;7420475;19;20010;-70
2022/08/21 18:04:39;;;;;;;3.92;1.63;;;;;;;;;;7421570;19;20009;-71
2022/08/21 18:07:04;;;;;;;2.28;1.40;;;;;;;;;;7419528;19;19998;-70
2022/08/21 18:09:30;;;;;;;2.22;1.15;;;;;;;;;;7422106;19;20021;-70
2022/08/21 18:11:57;;;;;;;2.58;1.40;;;;;;;;;;7420192;19;20508;-70
2022/08/21 18:14:27;;;;;;;2.10;1.05;;;;;;;;;;7420636;19;20010;-70
2022/08/21 18:16:53;;;;;;;2.35;1.23;;;;;;;;;;7418003;19;20018;-71
2022/08/21 18:19:20;;;;;;;1.10;0.90;;;;;;;;;;7417454;19;20489;-71
2022/08/21 18:21:47;;;;;;;2.85;1.50;;;;;;;;;;7423978;19;20002;-71
2022/08/21 18:24:12;;;;;;;3.67;1.40;;;;;;;;;;7415829;19;20025;-70
2022/08/21 18:26:40;;;;;;;1.70;1.23;;;;;;;;;;7420958;19;20351;-68
2022/08/21 18:29:10;;;;;;;1.75;1.27;;;;;;;;;;7419483;19;20335;-74
2022/08/21 18:31:37;;;;;;;2.45;1.15;;;;;;;;;;7418671;19;20346;-72
2022/08/21 18:34:20;;;;;;;1.13;1.02;;;;;;;;;;7392458;19;20024;-69
2022/08/21 18:36:46;;;;;;;4.20;2.00;;;;;;;;;;7389886;19;20005;-73
2022/08/21 18:39:11;;;;;;;9.95;4.80;;;;;;;;;;7387083;19;20010;-70
2022/08/21 18:41:37;;;;;;;4.47;2.75;;;;;;;;;;7390870;19;20066;-69
2022/08/21 18:44:02;;;;;;;2.03;1.30;;;;;;;;;;7388037;19;20010;-70
2022/08/21 18:46:28;;;;;;;0.90;0.90;;;;;;;;;;7386360;19;20007;-72
2022/08/21 18:48:54;;;;;;;2.60;1.30;;;;;;;;;;7391328;19;20006;-72
2022/08/21 18:51:19;;;;;;;1.40;0.90;;;;;;;;;;7388941;19;20097;-71
2022/08/21 18:53:44;;;;;;;1.85;1.30;;;;;;;;;;7391565;19;20035;-71
2022/08/21 18:56:10;;;;;;;1.52;1.17;;;;;;;;;;7385421;19;20006;-72
2022/08/21 18:58:36;;;;;;;1.63;1.20;;;;;;;;;;7389882;19;20002;-72
2022/08/21 19:01:01;;;;;;;1.17;0.88;;;;;;;;;;7388505;19;20016;-72
2022/08/21 19:03:28;;;;;;;1.75;1.17;;;;;;;;;;7300410;19;20007;-71
2022/08/21 19:05:53;;;;;;;0.70;0.70;;;;;;;;;;7387005;19;20036;-70
2022/08/21 19:08:21;;;;;;;1.20;1.05;;;;;;;;;;7390468;19;20006;-72
2022/08/21 19:10:49;;;;;;;1.45;1.15;;;;;;;;;;7388969;19;20040;-71
2022/08/21 19:13:19;;;;;;;2.55;1.13;;;;;;;;;;7388377;19;20003;-71
2022/08/21 19:15:48;;;;;;;2.93;1.07;;;;;;;;;;7385377;19;20041;-69
2022/08/21 19:18:15;;;;;;;1.98;1.13;;;;;;;;;;7389154;19;20002;-70
2022/08/21 19:20:41;;;;;;;1.20;0.98;;;;;;;;;;7390905;19;20490;-70
2022/08/21 19:23:09;;;;;;;1.10;1.00;;;;;;;;;;7390028;19;20015;-69
2022/08/21 19:25:36;;;;;;;1.98;1.30;;;;;;;;;;7387767;19;20281;-70
2022/08/21 19:28:09;;;;;;;2.83;1.13;;;;;;;;;;7388598;19;20026;-70
2022/08/21 19:30:48;;;;;;;2.42;1.10;;;;;;;;;;7390183;19;20474;-73
2022/08/21 19:33:29;;;;;;;2.60;1.40;;;;;;;;;;7389018;19;20014;-72
2022/08/21 19:35:55;;;;;;;5.35;2.58;;;;;;;;;;7386664;19;20356;-69
2022/08/21 19:38:20;;;;;;;6.88;4.03;;;;;;;;;;7389723;19;19999;-70
2022/08/21 19:40:46;;;;;;;3.40;1.73;;;;;;;;;;7386941;19;20007;-70
2022/08/21 19:43:12;;;;;;;1.83;1.30;;;;;;;;;;7385841;19;20006;-69
2022/08/21 19:45:37;;;;;;;4.00;1.27;;;;;;;;;;7384907;19;20031;-70
2022/08/21 19:48:03;;;;;;;1.85;1.02;;;;;;;;;;7385767;19;19998;-69
2022/08/21 19:50:28;;;;;;;4.53;1.30;;;;;;;;;;7390511;19;20012;-69
2022/08/21 19:52:53;;;;;;;2.13;1.30;;;;;;;;;;7385205;19;20464;-70
2022/08/21 19:55:19;;;;;;;2.53;1.40;;;;;;;;;;7387285;19;20097;-70
2022/08/21 19:57:44;;;;;;;2.30;1.30;;;;;;;;;;7386574;19;20009;-70
2022/08/21 20:00:11;;;;;;;1.23;1.15;;;;;;;;;;7388470;19;20361;-69
2022/08/21 20:02:36;;;;;;;1.52;1.10;;;;;;;;;;7390944;19;20027;-71
2022/08/21 20:05:03;;;;;;;3.85;2.22;;;;;;;;;;7385929;19;20002;-72
2022/08/21 20:07:28;;;;;;;6.20;3.03;;;;;;;;;;7387842;19;20069;-74
2022/08/21 20:09:55;;;;;;;2.55;1.52;;;;;;;;;;7387687;19;20014;-74
2022/08/21 20:12:20;;;;;;;4.47;1.40;;;;;;;;;;7389123;19;20073;-74
2022/08/21 20:14:46;;;;;;;2.13;1.30;;;;;;;;;;7392710;19;19999;-74
2022/08/21 20:17:15;;;;;;;1.38;1.25;;;;;;;;;;7390281;19;19999;-75
2022/08/21 20:19:41;;;;;;;2.45;1.33;;;;;;;;;;7393915;19;20044;-74
2022/08/21 20:22:07;;;;;;;1.80;1.20;;;;;;;;;;7390302;19;20027;-74
2022/08/21 20:24:33;;;;;;;1.70;1.10;;;;;;;;;;7390366;19;19998;-74
2022/08/21 20:27:00;;;;;;;1.10;1.00;;;;;;;;;;7393557;19;20015;-76
2022/08/21 20:29:27;;;;;;;1.63;1.17;;;;;;;;;;7390440;19;19998;-74
2022/08/21 20:31:53;;;;;;;1.05;0.90;;;;;;;;;;7388926;19;20009;-74
2022/08/21 20:34:18;;;;;;;1.85;1.27;;;;;;;;;;7385188;19;20066;-74
2022/08/21 20:36:44;;;;;;;1.80;0.98;;;;;;;;;;7390854;19;20027;-74
2022/08/21 20:39:09;;;;;;;1.08;0.90;;;;;;;;;;7392156;19;20300;-75
2022/08/21 20:41:35;;;;;;;1.75;0.90;;;;;;;;;;7392343;19;20001;-74
2022/08/21 20:44:01;;;;;;;1.25;1.10;;;;;;;;;;7391389;19;20075;-74
2022/08/21 20:46:28;;;;;;;1.25;1.10;;;;;;;;;;7390935;19;19998;-75
2022/08/21 20:48:54;;;;;;;2.13;1.10;;;;;;;;;;7393424;19;19994;-74
2022/08/21 20:51:39;;;;;;;1.70;1.23;;;;;;;;;;7389300;19;19995;-75
2022/08/21 20:54:26;;;;;;;1.25;1.10;;;;;;;;;;7392088;19;20344;-76
2022/08/21 20:57:03;;;;;;;1.63;1.00;;;;;;;;;;7384886;19;19999;-77
2022/08/21 20:59:32;;;;;;;2.50;1.08;;;;;;;;;;7388750;19;20411;-77
2022/08/21 21:02:05;;;;;;;1.50;1.10;;;;;;;;;;7390578;19;20511;-77
2022/08/21 21:04:41;;;;;;;1.52;1.25;;;;;;;;;;7391314;19;20464;-77
2022/08/21 21:07:09;;;;;;;1.50;1.38;;;;;;;;;;7387869;19;19999;-76
2022/08/21 21:09:46;;;;;;;1.83;1.00;;;;;;;;;;7389961;19;20332;-77
2022/08/21 21:12:23;;;;;;;2.88;1.15;;;;;;;;;;7390051;19;20061;-76
2022/08/21 21:14:53;;;;;;;1.50;1.40;;;;;;;;;;7392151;19;19995;-77
2022/08/21 21:17:40;;;;;;;1.38;1.10;;;;;;;;;;7388069;19;20483;-76
2022/08/21 21:20:08;;;;;;;3.92;1.17;;;;;;;;;;7391005;19;20002;-76
2022/08/21 21:22:43;;;;;;;3.00;1.17;;;;;;;;;;7391427;19;19994;-75
2022/08/21 21:25:25;;;;;;;1.92;1.17;;;;;;;;;;7386410;19;20050;-75
2022/08/21 21:28:02;;;;;;;3.00;1.05;;;;;;;;;;7388505;19;19998;-76
2022/08/21 21:30:35;;;;;;;1.58;1.10;;;;;;;;;;7391924;19;20016;-76
2022/08/21 21:33:01;;;;;;;2.63;1.40;;;;;;;;;;7384372;19;20037;-75
2022/08/21 21:35:36;;;;;;;2.13;1.15;;;;;;;;;;7385328;19;20104;-77
2022/08/21 21:38:12;;;;;;;2.42;1.15;;;;;;;;;;7386153;19;20352;-77
2022/08/21 21:40:51;;;;;;;1.55;1.00;;;;;;;;;;7387547;19;20006;-77
2022/08/21 21:43:29;;;;;;;1.08;0.90;;;;;;;;;;7387979;19;20381;-77
2022/08/21 21:46:23;;;;;;;1.52;1.30;;;;;;;;;;7384467;19;20010;-77
2022/08/21 21:49:10;;;;;;;2.45;1.27;;;;;;;;;;7387189;19;20001;-76
2022/08/21 21:51:55;;;;;;;1.33;0.90;;;;;;;;;;7385240;19;20023;-77
2022/08/21 21:54:29;;;;;;;0.95;0.82;;;;;;;;;;7386843;19;19999;-77
2022/08/21 21:57:32;;;;;;;2.40;1.70;;;;;;;;;;7384582;19;20061;-77
2022/08/21 22:00:16;;;;;;;4.13;2.53;;;;;;;;;;7387739;19;20005;-76
2022/08/21 22:02:47;;;;;;;2.78;1.60;;;;;;;;;;7385645;19;20040;-76
2022/08/21 22:05:32;;;;;;;3.35;1.50;;;;;;;;;;7384533;19;19998;-77
2022/08/21 22:08:05;;;;;;;0.52;0.52;;;;;;;;;;7388690;19;20515;-76
2022/08/21 22:10:56;;;;;;;2.92;1.35;;;;;;;;;;7394461;19;20006;-77
2022/08/21 22:13:44;;;;;;;1.88;1.13;;;;;;;;;;7392111;19;20013;-77
2022/08/21 22:16:10;;;;;;;2.60;1.23;;;;;;;;;;7389201;19;19998;-77
2022/08/21 22:18:41;;;;;;;1.70;1.02;;;;;;;;;;7388867;19;20010;-77
2022/08/21 22:21:16;;;;;;;1.27;1.08;;;;;;;;;;7391092;19;19999;-77
2022/08/21 22:23:47;;;;;;;1.95;0.90;;;;;;;;;;7390621;19;19999;-77
2022/08/21 22:26:19;;;;;;;0.95;0.90;;;;;;;;;;7390124;19;20347;-77
2022/08/21 22:28:49;;;;;;;1.30;0.82;;;;;;;;;;7392307;19;20074;-77
2022/08/21 22:31:21;;;;;;;1.95;1.23;;;;;;;;;;7394723;19;20002;-77
2022/08/21 22:34:17;;;;;;;0.90;0.90;;;;;;;;;;7398042;19;20082;-77
2022/08/21 22:36:46;;;;;;;1.98;1.02;;;;;;;;;;7390937;19;20398;-77
2022/08/21 22:39:28;;;;;;;0.98;0.85;;;;;;;;;;7394224;19;19991;-76
2022/08/21 22:41:53;;;;;;;0.93;0.82;;;;;;;;;;7393814;19;19999;-77
2022/08/21 22:44:24;;;;;;;1.15;0.95;;;;;;;;;;7397121;19;20026;-76
2022/08/21 22:46:54;;;;;;;0.63;0.63;;;;;;;;;;7392248;19;19994;-76
2022/08/21 22:49:42;;;;;;;0.85;0.85;;;;;;;;;;7393554;19;20040;-77
2022/08/21 22:52:17;;;;;;;0.77;0.77;;;;;;;;;;7390037;19;20460;-77
2022/08/21 22:54:44;;;;;;;2.20;0.98;;;;;;;;;;7391742;19;20491;-77
2022/08/21 22:57:31;;;;;;;1.13;0.90;;;;;;;;;;7391169;19;20010;-77
2022/08/21 23:00:15;;;;;;;1.80;1.00;;;;;;;;;;7393243;19;20002;-77
2022/08/21 23:02:49;;;;;;;0.88;0.68;;;;;;;;;;7391381;19;19998;-77
2022/08/21 23:05:19;;;;;;;1.33;0.85;;;;;;;;;;7390246;19;20021;-77
2022/08/21 23:07:47;;;;;;;0.95;0.85;;;;;;;;;;7392675;19;19994;-76
2022/08/21 23:10:26;;;;;;;0.85;0.85;;;;;;;;;;7390867;19;20032;-76
2022/08/21 23:13:01;;;;;;;1.27;0.80;;;;;;;;;;7390424;19;19999;-77
2022/08/21 23:15:33;;;;;;;0.80;0.80;;;;;;;;;;7388960;19;20462;-77
2022/08/21 23:17:59;;;;;;;0.80;0.80;;;;;;;;;;7392050;19;20549;-76
2022/08/21 23:20:34;;;;;;;1.98;1.20;;;;;;;;;;7391690;19;20035;-77
2022/08/21 23:23:14;;;;;;;0.88;0.70;;;;;;;;;;7391860;19;20005;-77
2022/08/21 23:25:54;;;;;;;1.80;1.30;;;;;;;;;;7388565;19;20002;-77
2022/08/21 23:28:40;;;;;;;2.08;1.17;;;;;;;;;;7391907;19;20001;-77
2022/08/21 23:31:08;;;;;;;2.38;1.10;;;;;;;;;;7388704;19;20006;-76
2022/08/21 23:33:45;;;;;;;0.70;0.70;;;;;;;;;;7387622;19;20002;-77
2022/08/21 23:39:11;;;;;;;1.00;0.90;;;;;;;;;;7392458;19;20576;-71
2022/08/21 23:41:50;;;;;;;1.23;1.05;;;;;;;;;;7392392;19;19999;-72
2022/08/21 23:44:36;;;;;;;0.80;0.70;;;;;;;;;;7387995;19;20036;-71
2022/08/21 23:47:34;;;;;;;1.17;1.08;;;;;;;;;;7389362;19;20006;-73
2022/08/21 23:50:10;;;;;;;1.45;1.02;;;;;;;;;;7388638;19;20006;-71
2022/08/21 23:53:08;;;;;;;0.75;0.73;;;;;;;;;;7383790;19;20006;-72
2022/08/21 23:55:37;;;;;;;0.80;0.80;;;;;;;;;;7383247;19;19998;-72
2022/08/21 23:58:27;;;;;;;1.20;0.82;;;;;;;;;;7387485;19;20003;-72
